createdAt,value
2022-09-28T00:00:46.651Z,20.48
2022-09-28T00:01:50.977Z,20.47
2022-09-28T00:02:55.741Z,20.48
2022-09-28T00:04:00.218Z,20.47
2022-09-28T00:05:04.663Z,20.44
2022-09-28T00:06:09.935Z,20.45
2022-09-28T00:07:14.302Z,20.44
2022-09-28T00:08:18.584Z,20.44
2022-09-28T00:09:22.847Z,20.46
2022-09-28T00:10:27.131Z,20.45
2022-09-28T00:11:31.400Z,20.44
2022-09-28T00:12:35.637Z,20.44
2022-09-28T00:13:39.867Z,20.43
2022-09-28T00:14:44.190Z,20.42
2022-09-28T00:15:48.464Z,20.43
2022-09-28T00:16:52.752Z,20.43
2022-09-28T00:17:57.045Z,20.41
2022-09-28T00:19:01.309Z,20.41
2022-09-28T00:20:05.939Z,20.41
2022-09-28T00:21:10.211Z,20.43
2022-09-28T00:22:14.444Z,20.43
2022-09-28T00:23:18.714Z,20.42
2022-09-28T00:24:26.778Z,20.42
2022-09-28T00:25:31.635Z,20.4
2022-09-28T00:26:36.912Z,20.4
2022-09-28T00:27:41.156Z,20.4
2022-09-28T00:28:45.401Z,20.41
2022-09-28T00:29:49.675Z,20.41
2022-09-28T00:30:53.909Z,20.42
2022-09-28T00:31:58.241Z,20.42
2022-09-28T00:33:02.924Z,20.43
2022-09-28T00:34:07.165Z,20.42
2022-09-28T00:35:11.415Z,20.42
2022-09-28T00:36:15.721Z,20.43
2022-09-28T00:37:19.977Z,20.41
2022-09-28T00:38:24.260Z,20.43
2022-09-28T00:39:28.528Z,20.42
2022-09-28T00:40:32.830Z,20.42
2022-09-28T00:41:37.217Z,20.4
2022-09-28T00:42:41.451Z,20.41
2022-09-28T00:43:45.675Z,20.39
2022-09-28T00:44:49.912Z,20.39
2022-09-28T00:45:54.212Z,20.4
2022-09-28T00:46:58.748Z,20.39
2022-09-28T00:48:03.015Z,20.39
2022-09-28T00:49:07.249Z,20.4
2022-09-28T00:50:11.476Z,20.39
2022-09-28T00:51:15.688Z,20.38
2022-09-28T00:52:19.927Z,20.41
2022-09-28T00:53:24.302Z,20.4
2022-09-28T00:54:28.557Z,20.42
2022-09-28T00:55:32.786Z,20.41
2022-09-28T00:56:37.031Z,20.4
2022-09-28T00:57:41.284Z,20.39
2022-09-28T00:58:45.505Z,20.39
2022-09-28T00:59:49.795Z,20.39
2022-09-28T01:00:54.081Z,20.38
2022-09-28T01:01:58.593Z,20.39
2022-09-28T01:03:03.058Z,20.38
2022-09-28T01:04:07.318Z,20.37
2022-09-28T01:05:11.556Z,20.37
2022-09-28T01:06:15.838Z,20.38
2022-09-28T01:07:20.086Z,20.38
2022-09-28T01:08:24.408Z,20.37
2022-09-28T01:09:28.657Z,20.37
2022-09-28T01:10:32.887Z,20.39
2022-09-28T01:11:37.124Z,20.38
2022-09-28T01:12:41.345Z,20.38
2022-09-28T01:13:45.600Z,20.38
2022-09-28T01:14:49.837Z,20.37
2022-09-28T01:15:54.111Z,20.37
2022-09-28T01:16:58.540Z,20.39
2022-09-28T01:18:02.815Z,20.38
2022-09-28T01:19:07.042Z,20.37
2022-09-28T01:20:11.325Z,20.38
2022-09-28T01:21:16.567Z,20.37
2022-09-28T01:22:20.854Z,20.37
2022-09-28T01:23:25.099Z,20.38
2022-09-28T01:24:29.331Z,20.39
2022-09-28T01:25:33.607Z,20.38
2022-09-28T01:26:37.855Z,20.38
2022-09-28T01:27:42.141Z,20.37
2022-09-28T01:28:46.390Z,20.37
2022-09-28T01:29:50.631Z,20.37
2022-09-28T01:30:54.877Z,20.37
2022-09-28T01:31:59.164Z,20.37
2022-09-28T01:33:03.657Z,20.39
2022-09-28T01:34:07.934Z,20.4
2022-09-28T01:35:12.175Z,20.4
2022-09-28T01:36:16.460Z,20.42
2022-09-28T01:37:20.708Z,20.41
2022-09-28T01:38:24.982Z,20.41
2022-09-28T01:39:29.670Z,20.41
2022-09-28T01:40:33.953Z,20.41
2022-09-28T01:41:38.397Z,20.41
2022-09-28T01:42:42.640Z,20.41
2022-09-28T01:43:46.888Z,20.42
2022-09-28T01:44:51.117Z,20.41
2022-09-28T01:45:55.443Z,20.4
2022-09-28T01:46:59.905Z,20.41
2022-09-28T01:48:04.179Z,20.42
2022-09-28T01:49:08.447Z,20.42
2022-09-28T01:50:12.765Z,20.44
2022-09-28T01:51:16.994Z,20.45
2022-09-28T01:52:21.262Z,20.44
2022-09-28T01:53:25.513Z,20.42
2022-09-28T01:54:29.759Z,20.41
2022-09-28T01:55:33.978Z,20.39
2022-09-28T01:56:38.314Z,20.39
2022-09-28T01:57:42.579Z,20.38
2022-09-28T01:58:46.839Z,20.37
2022-09-28T01:59:51.077Z,20.38
2022-09-28T02:00:55.349Z,20.38
2022-09-28T02:01:59.911Z,20.37
2022-09-28T02:03:04.354Z,20.37
2022-09-28T02:04:08.580Z,20.36
2022-09-28T02:05:12.848Z,20.36
2022-09-28T02:06:17.099Z,20.36
2022-09-28T02:07:21.353Z,20.35
2022-09-28T02:08:25.606Z,20.35
2022-09-28T02:09:33.636Z,20.34
2022-09-28T02:10:38.067Z,20.35
2022-09-28T02:11:42.342Z,20.35
2022-09-28T02:12:46.618Z,20.34
2022-09-28T02:13:50.850Z,20.34
2022-09-28T02:14:55.088Z,20.35
2022-09-28T02:15:59.375Z,20.36
2022-09-28T02:17:03.899Z,20.35
2022-09-28T02:18:08.143Z,20.37
2022-09-28T02:19:12.379Z,20.4
2022-09-28T02:20:16.803Z,20.4
2022-09-28T02:21:21.040Z,20.4
2022-09-28T02:22:25.336Z,20.39
2022-09-28T02:23:29.598Z,20.38
2022-09-28T02:24:33.848Z,20.39
2022-09-28T02:25:38.080Z,20.39
2022-09-28T02:26:42.318Z,20.38
2022-09-28T02:27:48.855Z,20.36
2022-09-28T02:28:53.084Z,20.36
2022-09-28T02:29:57.294Z,20.35
2022-09-28T02:31:01.542Z,20.35
2022-09-28T02:32:05.950Z,20.35
2022-09-28T02:33:10.221Z,20.36
2022-09-28T02:34:14.479Z,20.35
2022-09-28T02:35:18.719Z,20.36
2022-09-28T02:36:22.992Z,20.35
2022-09-28T02:37:27.227Z,20.35
2022-09-28T02:38:31.452Z,20.35
2022-09-28T02:39:35.728Z,20.35
2022-09-28T02:40:40.023Z,20.34
2022-09-28T02:41:44.569Z,20.35
2022-09-28T02:42:48.797Z,20.35
2022-09-28T02:43:53.064Z,20.36
2022-09-28T02:44:57.276Z,20.37
2022-09-28T02:46:01.583Z,20.37
2022-09-28T02:47:06.084Z,20.37
2022-09-28T02:48:10.342Z,20.36
2022-09-28T02:49:21.628Z,20.36
2022-09-28T02:50:26.815Z,20.39
2022-09-28T02:51:31.079Z,20.39
2022-09-28T02:52:35.348Z,20.41
2022-09-28T02:53:39.587Z,20.4
2022-09-28T02:54:43.847Z,20.41
2022-09-28T02:55:48.045Z,20.41
2022-09-28T02:56:52.329Z,20.4
2022-09-28T02:57:57.919Z,20.4
2022-09-28T02:59:02.155Z,20.39
2022-09-28T03:00:06.651Z,20.42
2022-09-28T03:01:10.976Z,20.41
2022-09-28T03:02:15.438Z,20.39
2022-09-28T03:03:19.891Z,20.37
2022-09-28T03:04:24.135Z,20.35
2022-09-28T03:05:28.390Z,20.36
2022-09-28T03:06:32.638Z,20.35
2022-09-28T03:07:36.872Z,20.33
2022-09-28T03:08:41.114Z,20.33
2022-09-28T03:09:45.339Z,20.33
2022-09-28T03:10:49.611Z,20.33
2022-09-28T03:11:53.902Z,20.33
2022-09-28T03:12:58.126Z,20.34
2022-09-28T03:14:02.448Z,20.34
2022-09-28T03:15:06.687Z,20.35
2022-09-28T03:16:10.970Z,20.34
2022-09-28T03:17:16.377Z,20.34
2022-09-28T03:18:20.634Z,20.35
2022-09-28T03:19:24.868Z,20.33
2022-09-28T03:20:29.114Z,20.33
2022-09-28T03:21:33.387Z,20.34
2022-09-28T03:22:37.629Z,20.33
2022-09-28T03:23:41.897Z,20.32
2022-09-28T03:24:46.171Z,20.32
2022-09-28T03:25:50.397Z,20.32
2022-09-28T03:26:54.649Z,20.32
2022-09-28T03:27:58.883Z,20.34
2022-09-28T03:29:03.130Z,20.34
2022-09-28T03:30:07.463Z,20.33
2022-09-28T03:31:11.797Z,20.32
2022-09-28T03:32:16.259Z,20.35
2022-09-28T03:33:20.492Z,20.36
2022-09-28T03:34:24.763Z,20.36
2022-09-28T03:35:29.060Z,20.36
2022-09-28T03:36:33.308Z,20.36
2022-09-28T03:37:37.542Z,20.36
2022-09-28T03:38:41.792Z,20.36
2022-09-28T03:39:46.033Z,20.37
2022-09-28T03:40:50.358Z,20.36
2022-09-28T03:41:54.828Z,20.37
2022-09-28T03:42:59.096Z,20.36
2022-09-28T03:44:03.330Z,20.36
2022-09-28T03:45:07.617Z,20.37
2022-09-28T03:46:12.970Z,20.37
2022-09-28T03:47:17.439Z,20.38
2022-09-28T03:48:24.465Z,20.39
2022-09-28T03:49:35.528Z,20.41
2022-09-28T03:50:39.756Z,20.42
2022-09-28T03:51:44.024Z,20.43
2022-09-28T03:52:48.320Z,20.46
2022-09-28T03:53:52.587Z,20.45
2022-09-28T03:54:56.821Z,20.45
2022-09-28T03:56:02.075Z,20.46
2022-09-28T03:57:06.386Z,20.45
2022-09-28T03:58:10.631Z,20.46
2022-09-28T03:59:15.941Z,20.48
2022-09-28T04:00:20.461Z,20.47
2022-09-28T04:01:24.782Z,20.46
2022-09-28T04:02:29.424Z,20.46
2022-09-28T04:03:34.086Z,20.53
2022-09-28T04:04:38.317Z,20.6
2022-09-28T04:05:42.536Z,20.74
2022-09-28T04:06:46.795Z,20.92
2022-09-28T04:07:51.038Z,21.07
2022-09-28T04:08:55.258Z,21.21
2022-09-28T04:09:59.518Z,21.24
2022-09-28T04:11:03.762Z,21.25
2022-09-28T04:12:08.023Z,21.27
2022-09-28T04:13:12.333Z,21.27
2022-09-28T04:14:17.625Z,21.32
2022-09-28T04:15:21.867Z,21.36
2022-09-28T04:16:26.185Z,21.4
2022-09-28T04:17:30.629Z,21.41
2022-09-28T04:18:40.098Z,21.43
2022-09-28T04:19:44.356Z,21.48
2022-09-28T04:20:48.585Z,21.53
2022-09-28T04:21:52.857Z,21.54
2022-09-28T04:22:57.129Z,21.53
2022-09-28T04:24:01.535Z,21.53
2022-09-28T04:25:05.782Z,21.52
2022-09-28T04:26:10.041Z,21.5
2022-09-28T04:27:14.292Z,21.48
2022-09-28T04:28:18.604Z,21.48
2022-09-28T04:29:23.006Z,21.47
2022-09-28T04:30:27.326Z,21.43
2022-09-28T04:31:31.615Z,21.41
2022-09-28T04:32:36.091Z,21.37
2022-09-28T04:33:40.321Z,21.35
2022-09-28T04:34:44.682Z,21.34
2022-09-28T04:35:48.942Z,21.32
2022-09-28T04:36:53.171Z,21.3
2022-09-28T04:37:57.414Z,21.27
2022-09-28T04:39:01.653Z,21.25
2022-09-28T04:40:05.942Z,21.23
2022-09-28T04:41:10.203Z,21.21
2022-09-28T04:42:14.438Z,21.19
2022-09-28T04:43:18.695Z,21.17
2022-09-28T04:44:22.960Z,21.16
2022-09-28T04:45:27.338Z,21.14
2022-09-28T04:46:31.824Z,21.13
2022-09-28T04:47:36.082Z,21.11
2022-09-28T04:48:40.367Z,21.08
2022-09-28T04:49:44.626Z,21.08
2022-09-28T04:50:48.850Z,21.06
2022-09-28T04:51:53.110Z,21.04
2022-09-28T04:52:57.335Z,21.03
2022-09-28T04:54:01.582Z,21.01
2022-09-28T04:55:05.813Z,20.99
2022-09-28T04:56:10.090Z,20.98
2022-09-28T04:57:14.377Z,20.96
2022-09-28T04:58:18.644Z,20.94
2022-09-28T04:59:22.887Z,20.93
2022-09-28T05:00:27.103Z,20.93
2022-09-28T05:01:32.428Z,20.9
2022-09-28T05:02:37.061Z,20.89
2022-09-28T05:03:41.572Z,20.87
2022-09-28T05:04:45.835Z,20.86
2022-09-28T05:05:50.063Z,20.86
2022-09-28T05:06:54.318Z,20.84
2022-09-28T05:08:00.793Z,20.82
2022-09-28T05:09:05.087Z,20.8
2022-09-28T05:10:09.310Z,20.79
2022-09-28T05:11:13.566Z,20.78
2022-09-28T05:12:17.822Z,20.78
2022-09-28T05:13:22.142Z,20.76
2022-09-28T05:14:26.707Z,20.77
2022-09-28T05:15:31.000Z,20.75
2022-09-28T05:16:35.300Z,20.77
2022-09-28T05:17:39.787Z,20.78
2022-09-28T05:18:44.052Z,20.77
2022-09-28T05:19:48.321Z,20.76
2022-09-28T05:20:52.587Z,20.78
2022-09-28T05:21:56.837Z,20.76
2022-09-28T05:23:01.074Z,20.76
2022-09-28T05:24:05.312Z,20.74
2022-09-28T05:25:09.558Z,20.73
2022-09-28T05:26:13.789Z,20.72
2022-09-28T05:27:18.036Z,20.72
2022-09-28T05:28:22.351Z,20.72
2022-09-28T05:29:30.145Z,20.71
2022-09-28T05:30:36.224Z,20.69
2022-09-28T05:31:40.570Z,20.68
2022-09-28T05:32:44.996Z,20.68
2022-09-28T05:33:49.290Z,20.68
2022-09-28T05:34:53.842Z,20.68
2022-09-28T05:36:01.240Z,20.66
2022-09-28T05:37:05.747Z,20.66
2022-09-28T05:38:10.041Z,20.66
2022-09-28T05:39:14.323Z,20.64
2022-09-28T05:40:19.044Z,20.62
2022-09-28T05:41:23.486Z,20.63
2022-09-28T05:42:27.734Z,20.62
2022-09-28T05:43:32.029Z,20.62
2022-09-28T05:44:36.275Z,20.62
2022-09-28T05:45:40.656Z,20.62
2022-09-28T05:46:45.091Z,20.62
2022-09-28T05:47:49.350Z,20.61
2022-09-28T05:48:53.630Z,20.62
2022-09-28T05:49:57.873Z,20.61
2022-09-28T05:51:02.093Z,20.62
2022-09-28T05:52:06.396Z,20.61
2022-09-28T05:53:10.730Z,20.6
2022-09-28T05:54:15.084Z,20.58
2022-09-28T05:55:19.657Z,20.58
2022-09-28T05:56:23.909Z,20.59
2022-09-28T05:57:28.177Z,20.54
2022-09-28T05:58:32.386Z,20.55
2022-09-28T05:59:36.668Z,20.54
2022-09-28T06:00:40.919Z,20.55
2022-09-28T06:01:45.253Z,20.56
2022-09-28T06:02:49.537Z,20.54
2022-09-28T06:03:54.023Z,20.53
2022-09-28T06:04:58.257Z,20.53
2022-09-28T06:06:02.524Z,20.51
2022-09-28T06:07:06.749Z,20.49
2022-09-28T06:08:10.990Z,20.46
2022-09-28T06:09:15.274Z,20.45
2022-09-28T06:10:19.531Z,20.45
2022-09-28T06:11:23.813Z,20.46
2022-09-28T06:12:28.097Z,20.48
2022-09-28T06:13:32.384Z,20.47
2022-09-28T06:14:36.617Z,20.47
2022-09-28T06:15:40.922Z,20.46
2022-09-28T06:16:45.193Z,20.45
2022-09-28T06:17:49.637Z,20.47
2022-09-28T06:18:54.244Z,20.49
2022-09-28T06:19:58.560Z,20.47
2022-09-28T06:21:02.778Z,20.47
2022-09-28T06:22:07.024Z,20.48
2022-09-28T06:23:11.380Z,20.48
2022-09-28T06:24:15.716Z,20.5
2022-09-28T06:25:20.376Z,20.48
2022-09-28T06:26:24.621Z,20.47
2022-09-28T06:27:28.896Z,20.46
2022-09-28T06:28:33.206Z,20.51
2022-09-28T06:29:37.430Z,20.48
2022-09-28T06:30:41.679Z,20.46
2022-09-28T06:31:46.141Z,20.48
2022-09-28T06:32:50.361Z,20.47
2022-09-28T06:33:54.686Z,20.49
2022-09-28T06:34:58.990Z,20.47
2022-09-28T06:36:03.261Z,20.47
2022-09-28T06:37:07.533Z,20.45
2022-09-28T06:38:11.796Z,20.42
2022-09-28T06:39:16.072Z,20.43
2022-09-28T06:40:20.340Z,20.42
2022-09-28T06:41:24.867Z,20.44
2022-09-28T06:42:29.129Z,20.41
2022-09-28T06:43:34.456Z,20.45
2022-09-28T06:44:38.801Z,20.47
2022-09-28T06:45:43.081Z,20.44
2022-09-28T06:46:47.614Z,20.45
2022-09-28T06:47:51.870Z,20.4
2022-09-28T06:48:56.178Z,20.37
2022-09-28T06:50:00.396Z,20.38
2022-09-28T06:51:04.624Z,20.37
2022-09-28T06:52:08.858Z,20.34
2022-09-28T06:53:13.078Z,20.3
2022-09-28T06:54:17.491Z,20.29
2022-09-28T06:55:21.991Z,20.28
2022-09-28T06:56:29.417Z,20.27
2022-09-28T06:57:36.564Z,20.26
2022-09-28T06:58:40.779Z,20.27
2022-09-28T06:59:45.144Z,20.26
2022-09-28T07:00:49.468Z,20.25
2022-09-28T07:01:54.049Z,20.24
2022-09-28T07:02:58.428Z,20.26
2022-09-28T07:04:02.722Z,20.23
2022-09-28T07:05:07.260Z,20.27
2022-09-28T07:06:11.531Z,20.25
2022-09-28T07:07:15.790Z,20.23
2022-09-28T07:08:20.035Z,20.23
2022-09-28T07:09:32.096Z,20.23
2022-09-28T07:10:45.990Z,20.23
2022-09-28T07:11:50.215Z,20.22
2022-09-28T07:12:54.577Z,20.25
2022-09-28T07:13:58.827Z,20.29
2022-09-28T07:15:03.225Z,20.32
2022-09-28T07:16:07.701Z,20.3
2022-09-28T07:17:14.341Z,20.32
2022-09-28T07:18:19.243Z,20.34
2022-09-28T07:19:23.671Z,20.32
2022-09-28T07:20:27.946Z,20.31
2022-09-28T07:21:32.198Z,20.33
2022-09-28T07:22:42.673Z,20.34
2022-09-28T07:23:53.101Z,20.35
2022-09-28T07:24:58.079Z,20.38
2022-09-28T07:26:07.878Z,20.37
2022-09-28T07:27:12.935Z,20.38
2022-09-28T07:28:17.447Z,20.37
2022-09-28T07:29:21.708Z,20.41
2022-09-28T07:30:25.975Z,20.41
2022-09-28T07:31:30.877Z,20.39
2022-09-28T07:32:35.141Z,20.36
2022-09-28T07:33:39.424Z,20.37
2022-09-28T07:34:43.661Z,20.36
2022-09-28T07:35:48.043Z,20.38
2022-09-28T07:36:52.296Z,20.38
2022-09-28T07:37:56.542Z,20.39
2022-09-28T07:39:00.811Z,20.38
2022-09-28T07:40:05.053Z,20.4
2022-09-28T07:41:09.360Z,20.36
2022-09-28T07:42:13.774Z,20.33
2022-09-28T07:43:19.044Z,20.33
2022-09-28T07:44:23.288Z,20.31
2022-09-28T07:45:27.496Z,20.32
2022-09-28T07:46:31.866Z,20.34
2022-09-28T07:47:36.148Z,20.34
2022-09-28T07:48:40.401Z,20.32
2022-09-28T07:49:44.637Z,20.32
2022-09-28T07:50:48.958Z,20.36
2022-09-28T07:51:53.280Z,20.33
2022-09-28T07:52:57.528Z,20.32
2022-09-28T07:54:01.747Z,20.32
2022-09-28T07:55:07.154Z,20.32
2022-09-28T07:56:11.706Z,20.29
2022-09-28T07:57:15.931Z,20.31
2022-09-28T07:58:20.165Z,20.31
2022-09-28T07:59:24.425Z,20.32
2022-09-28T08:00:32.012Z,20.31
2022-09-28T08:01:37.839Z,20.31
2022-09-28T08:02:42.371Z,20.3
2022-09-28T08:03:46.987Z,20.28
2022-09-28T08:04:51.324Z,20.24
2022-09-28T08:05:55.549Z,20.27
2022-09-28T08:06:59.838Z,20.27
2022-09-28T08:08:04.061Z,20.28
2022-09-28T08:09:08.356Z,20.27
2022-09-28T08:10:12.664Z,20.29
2022-09-28T08:11:17.334Z,20.29
2022-09-28T08:12:21.565Z,20.31
2022-09-28T08:13:26.941Z,20.31
2022-09-28T08:14:31.322Z,20.28
2022-09-28T08:15:35.648Z,20.26
2022-09-28T08:16:39.918Z,20.27
2022-09-28T08:17:44.230Z,20.27
2022-09-28T08:18:48.459Z,20.25
2022-09-28T08:19:52.681Z,20.25
2022-09-28T08:20:57.185Z,20.23
2022-09-28T08:22:01.447Z,20.25
2022-09-28T08:23:05.726Z,20.27
2022-09-28T08:24:09.982Z,20.31
2022-09-28T08:25:14.418Z,20.31
2022-09-28T08:26:18.650Z,20.3
2022-09-28T08:27:22.928Z,20.28
2022-09-28T08:28:27.190Z,20.29
2022-09-28T08:29:31.457Z,20.27
2022-09-28T08:30:35.789Z,20.26
2022-09-28T08:31:40.240Z,20.24
2022-09-28T08:32:44.504Z,20.27
2022-09-28T08:33:48.733Z,20.28
2022-09-28T08:34:53.052Z,20.28
2022-09-28T08:35:58.299Z,20.27
2022-09-28T08:37:02.538Z,20.25
2022-09-28T08:38:06.768Z,20.27
2022-09-28T08:39:11.034Z,20.24
2022-09-28T08:40:15.368Z,20.24
2022-09-28T08:41:19.894Z,20.26
2022-09-28T08:42:24.210Z,20.24
2022-09-28T08:43:28.448Z,20.25
2022-09-28T08:44:32.734Z,20.26
2022-09-28T08:45:37.193Z,20.25
2022-09-28T08:46:41.654Z,20.27
2022-09-28T08:47:45.905Z,20.28
2022-09-28T08:49:06.854Z,20.25
2022-09-28T08:50:29.095Z,20.22
2022-09-28T08:51:33.350Z,20.22
2022-09-28T08:52:37.560Z,20.22
2022-09-28T08:53:41.826Z,20.22
2022-09-28T08:54:46.057Z,20.23
2022-09-28T08:55:50.315Z,20.23
2022-09-28T08:56:54.621Z,20.22
2022-09-28T08:57:58.877Z,20.22
2022-09-28T08:59:03.137Z,20.19
2022-09-28T09:00:10.924Z,20.23
2022-09-28T09:01:15.447Z,20.24
2022-09-28T09:02:20.060Z,20.21
2022-09-28T09:03:24.576Z,20.16
2022-09-28T09:04:28.829Z,20.22
2022-09-28T09:05:33.326Z,20.23
2022-09-28T09:06:37.607Z,20.24
2022-09-28T09:07:41.821Z,20.24
2022-09-28T09:08:46.066Z,20.24
2022-09-28T09:09:50.311Z,20.24
2022-09-28T09:10:54.517Z,20.27
2022-09-28T09:11:58.753Z,20.24
2022-09-28T09:13:03.024Z,20.22
2022-09-28T09:14:07.324Z,20.22
2022-09-28T09:15:11.549Z,20.22
2022-09-28T09:16:15.802Z,20.2
2022-09-28T09:17:20.142Z,20.18
2022-09-28T09:18:24.385Z,20.19
2022-09-28T09:19:28.775Z,20.19
2022-09-28T09:20:33.057Z,20.21
2022-09-28T09:21:38.313Z,20.22
2022-09-28T09:22:42.603Z,20.2
2022-09-28T09:23:46.854Z,20.2
2022-09-28T09:24:51.094Z,20.2
2022-09-28T09:25:55.357Z,20.22
2022-09-28T09:26:59.712Z,20.19
2022-09-28T09:28:03.956Z,20.2
2022-09-28T09:29:08.227Z,20.21
2022-09-28T09:30:12.863Z,20.17
2022-09-28T09:31:23.064Z,20.19
2022-09-28T09:32:27.552Z,20.19
2022-09-28T09:33:31.879Z,20.2
2022-09-28T09:34:36.131Z,20.2
2022-09-28T09:35:40.458Z,20.22
2022-09-28T09:36:44.947Z,20.21
2022-09-28T09:37:49.175Z,20.22
2022-09-28T09:38:57.551Z,20.24
2022-09-28T09:40:01.793Z,20.23
2022-09-28T09:41:06.269Z,20.22
2022-09-28T09:42:10.982Z,20.2
2022-09-28T09:43:15.210Z,20.16
2022-09-28T09:44:19.598Z,20.14
2022-09-28T09:45:23.938Z,20.15
2022-09-28T09:46:28.155Z,20.15
2022-09-28T09:47:32.393Z,20.14
2022-09-28T09:48:36.652Z,20.17
2022-09-28T09:49:41.242Z,20.18
2022-09-28T09:50:45.487Z,20.19
2022-09-28T09:51:49.755Z,20.22
2022-09-28T09:52:54.099Z,20.18
2022-09-28T09:53:58.352Z,20.17
2022-09-28T09:55:02.741Z,20.19
2022-09-28T09:56:07.025Z,20.19
2022-09-28T09:57:11.319Z,20.23
2022-09-28T09:58:15.626Z,20.2
2022-09-28T09:59:19.987Z,20.21
2022-09-28T10:00:24.269Z,20.2
2022-09-28T10:01:28.528Z,20.19
2022-09-28T10:02:32.956Z,20.2
2022-09-28T10:03:37.479Z,20.21
2022-09-28T10:04:41.744Z,20.21
2022-09-28T10:05:47.066Z,20.21
2022-09-28T10:06:51.350Z,20.2
2022-09-28T10:07:55.580Z,20.22
2022-09-28T10:08:59.847Z,20.2
2022-09-28T10:10:04.067Z,20.23
2022-09-28T10:11:08.354Z,20.24
2022-09-28T10:12:12.645Z,20.23
2022-09-28T10:13:18.383Z,20.25
2022-09-28T10:14:23.679Z,20.22
2022-09-28T10:15:27.938Z,20.23
2022-09-28T10:16:32.246Z,20.2
2022-09-28T10:17:36.745Z,20.21
2022-09-28T10:18:40.979Z,20.22
2022-09-28T10:19:45.295Z,20.21
2022-09-28T10:20:49.650Z,20.2
2022-09-28T10:21:53.871Z,20.2
2022-09-28T10:22:58.106Z,20.21
2022-09-28T10:24:02.328Z,20.23
2022-09-28T10:25:06.879Z,20.2
2022-09-28T10:26:11.138Z,20.2
2022-09-28T10:27:15.409Z,20.19
2022-09-28T10:28:19.690Z,20.19
2022-09-28T10:29:24.341Z,20.19
2022-09-28T10:30:28.709Z,20.18
2022-09-28T10:31:33.153Z,20.18
2022-09-28T10:32:37.686Z,20.17
2022-09-28T10:33:41.921Z,20.16
2022-09-28T10:34:48.789Z,20.16
2022-09-28T10:35:55.193Z,20.17
2022-09-28T10:36:59.416Z,20.19
2022-09-28T10:38:03.621Z,20.17
2022-09-28T10:39:07.995Z,20.17
2022-09-28T10:40:12.240Z,20.18
2022-09-28T10:41:16.501Z,20.18
2022-09-28T10:42:20.744Z,20.17
2022-09-28T10:43:25.001Z,20.15
2022-09-28T10:44:29.248Z,20.16
2022-09-28T10:45:33.504Z,20.17
2022-09-28T10:46:37.785Z,20.17
2022-09-28T10:47:41.993Z,20.17
2022-09-28T10:48:46.267Z,20.16
2022-09-28T10:49:50.514Z,20.18
2022-09-28T10:50:54.720Z,20.17
2022-09-28T10:51:58.989Z,20.18
2022-09-28T10:53:03.347Z,20.18
2022-09-28T10:54:07.575Z,20.19
2022-09-28T10:55:11.825Z,20.21
2022-09-28T10:56:16.103Z,20.24
2022-09-28T10:57:20.350Z,20.25
2022-09-28T10:58:24.629Z,20.28
2022-09-28T10:59:28.909Z,20.3
2022-09-28T11:00:33.217Z,20.31
2022-09-28T11:01:37.599Z,20.34
2022-09-28T11:02:42.118Z,20.36
2022-09-28T11:03:46.573Z,20.37
2022-09-28T11:04:50.799Z,20.38
2022-09-28T11:05:55.075Z,20.39
2022-09-28T11:08:05.008Z,20.47
2022-09-28T11:09:09.240Z,20.49
2022-09-28T11:10:13.553Z,20.51
2022-09-28T11:11:17.884Z,20.53
2022-09-28T11:12:22.151Z,20.53
2022-09-28T11:13:26.375Z,20.56
2022-09-28T11:14:31.482Z,20.57
2022-09-28T11:15:39.487Z,20.56
2022-09-28T11:16:43.811Z,20.56
2022-09-28T11:17:48.333Z,20.57
2022-09-28T11:18:52.557Z,20.57
2022-09-28T11:19:59.842Z,20.56
2022-09-28T11:21:04.175Z,20.56
2022-09-28T11:22:13.925Z,20.54
2022-09-28T11:23:18.368Z,20.53
2022-09-28T11:24:22.917Z,20.52
2022-09-28T11:25:28.294Z,20.49
2022-09-28T11:26:32.590Z,20.49
2022-09-28T11:27:36.841Z,20.48
2022-09-28T11:28:41.079Z,20.48
2022-09-28T11:29:45.331Z,20.46
2022-09-28T11:30:50.640Z,20.46
2022-09-28T11:31:55.162Z,20.45
2022-09-28T11:32:59.390Z,20.44
2022-09-28T11:34:03.682Z,20.46
2022-09-28T11:35:07.915Z,20.44
2022-09-28T11:36:12.215Z,20.46
2022-09-28T11:37:16.483Z,20.44
2022-09-28T11:38:20.720Z,20.44
2022-09-28T11:39:24.956Z,20.44
2022-09-28T11:40:29.226Z,20.43
2022-09-28T11:41:33.738Z,20.43
2022-09-28T11:42:38.022Z,20.44
2022-09-28T11:43:42.543Z,20.42
2022-09-28T11:44:46.781Z,20.43
2022-09-28T11:45:51.124Z,20.43
2022-09-28T11:46:55.724Z,20.42
2022-09-28T11:47:59.995Z,20.43
2022-09-28T11:49:04.278Z,20.45
2022-09-28T11:50:08.597Z,20.46
2022-09-28T11:51:13.880Z,20.47
2022-09-28T11:52:18.126Z,20.46
2022-09-28T11:53:22.382Z,20.45
2022-09-28T11:54:26.630Z,20.44
2022-09-28T11:55:30.871Z,20.41
2022-09-28T11:56:35.169Z,20.42
2022-09-28T11:57:39.411Z,20.42
2022-09-28T11:58:43.628Z,20.41
2022-09-28T11:59:47.861Z,20.43
2022-09-28T12:00:52.135Z,20.44
2022-09-28T12:01:56.560Z,20.43
2022-09-28T12:03:01.365Z,20.41
2022-09-28T12:04:06.049Z,20.41
2022-09-28T12:05:10.272Z,20.42
2022-09-28T12:06:18.232Z,20.41
2022-09-28T12:07:22.511Z,20.41
2022-09-28T12:08:26.754Z,20.39
2022-09-28T12:09:31.016Z,20.39
2022-09-28T12:10:35.242Z,20.39
2022-09-28T12:11:39.502Z,20.37
2022-09-28T12:12:43.766Z,20.35
2022-09-28T12:13:47.987Z,20.36
2022-09-28T12:14:52.236Z,20.33
2022-09-28T12:18:26.138Z,20.36
2022-09-28T12:19:30.420Z,20.37
2022-09-28T12:20:34.708Z,20.36
2022-09-28T12:21:38.938Z,20.34
2022-09-28T12:22:43.220Z,20.33
2022-09-28T12:23:47.442Z,20.32
2022-09-28T12:24:51.681Z,20.34
2022-09-28T12:25:55.983Z,20.31
2022-09-28T12:27:00.234Z,20.31
2022-09-28T12:28:04.452Z,20.28
2022-09-28T12:29:08.681Z,20.29
2022-09-28T12:30:13.070Z,20.29
2022-09-28T12:31:17.554Z,20.31
2022-09-28T12:32:22.061Z,20.3
2022-09-28T12:33:26.547Z,20.28
2022-09-28T12:34:30.795Z,20.29
2022-09-28T12:35:35.004Z,20.31
2022-09-28T12:36:39.329Z,20.29
2022-09-28T12:37:43.661Z,20.27
2022-09-28T12:38:50.866Z,20.25
2022-09-28T12:40:58.943Z,20.24
2022-09-28T12:42:03.448Z,20.22
2022-09-28T12:43:07.729Z,20.23
2022-09-28T12:44:12.002Z,20.24
2022-09-28T12:45:16.275Z,20.24
2022-09-28T12:46:20.552Z,20.25
2022-09-28T12:47:24.972Z,20.24
2022-09-28T12:48:29.339Z,20.26
2022-09-28T12:51:46.319Z,20.26
2022-09-28T12:52:50.585Z,20.25
2022-09-28T12:53:54.890Z,20.24
2022-09-28T12:54:59.151Z,20.22
2022-09-28T12:56:03.776Z,20.23
2022-09-28T12:57:08.084Z,20.21
2022-09-28T12:58:12.327Z,20.2
2022-09-28T12:59:16.729Z,20.19
2022-09-28T13:00:21.363Z,20.22
2022-09-28T13:01:25.620Z,20.22
2022-09-28T13:02:30.093Z,20.24
2022-09-28T13:03:34.553Z,20.23
2022-09-28T13:04:41.802Z,20.24
2022-09-28T13:05:46.039Z,20.24
2022-09-28T13:06:50.289Z,20.22
2022-09-28T13:07:54.517Z,20.25
2022-09-28T13:08:58.759Z,20.24
2022-09-28T13:10:03.039Z,20.25
2022-09-28T13:11:08.068Z,20.26
2022-09-28T13:12:12.475Z,20.26
2022-09-28T13:13:16.686Z,20.22
2022-09-28T13:14:20.930Z,20.23
2022-09-28T13:15:25.185Z,20.24
2022-09-28T13:16:29.437Z,20.26
2022-09-28T13:17:33.647Z,20.24
2022-09-28T13:18:37.882Z,20.24
2022-09-28T13:19:42.122Z,20.25
2022-09-28T13:20:46.378Z,20.23
2022-09-28T13:21:50.637Z,20.23
2022-09-28T13:22:54.888Z,20.23
2022-09-28T13:24:08.961Z,20.21
2022-09-28T13:25:36.003Z,20.21
2022-09-28T13:26:40.232Z,20.19
2022-09-28T13:27:44.486Z,20.2
2022-09-28T13:28:48.790Z,20.18
2022-09-28T13:29:53.742Z,20.19
2022-09-28T13:31:03.576Z,20.21
2022-09-28T13:32:07.884Z,20.23
2022-09-28T13:33:12.171Z,20.24
2022-09-28T13:34:16.434Z,20.24
2022-09-28T13:35:20.867Z,20.25
2022-09-28T13:36:25.117Z,20.22
2022-09-28T13:37:29.385Z,20.19
2022-09-28T13:38:33.637Z,20.2
2022-09-28T13:39:37.944Z,20.24
2022-09-28T13:40:42.233Z,20.3
2022-09-28T13:41:46.684Z,20.3
2022-09-28T13:42:50.923Z,20.37
2022-09-28T13:43:55.158Z,20.41
2022-09-28T13:44:59.435Z,20.45
2022-09-28T13:46:03.763Z,20.48
2022-09-28T13:47:08.286Z,20.51
2022-09-28T13:48:12.565Z,20.53
2022-09-28T13:49:16.846Z,20.55
2022-09-28T13:50:21.111Z,20.54
2022-09-28T13:51:25.363Z,20.54
2022-09-28T13:52:29.583Z,20.56
2022-09-28T13:53:33.834Z,20.57
2022-09-28T13:54:41.460Z,20.58
2022-09-28T13:55:45.997Z,20.56
2022-09-28T13:56:50.229Z,20.57
2022-09-28T13:57:54.477Z,20.57
2022-09-28T13:58:58.741Z,20.57
2022-09-28T14:00:02.977Z,20.56
2022-09-28T14:01:07.308Z,20.56